Time;durP1;ratioP1;P1;durP2;ratioP2;P2;SDS_P1;SDS_P2;PMS_P1;PMS_P2;Temp;Humidity;BMP_temperature;BMP_pressure;BME280_temperature;BME280_humidity;BME280_pressure;Samples;Min_cycle;Max_cycle;Signal;HPM_P1;HPM_P2
2022/04/12 00:01:06;;;;;;;11.52;7.80;;;103.10;2227.20;;;;;;5029757;28;20033;-52
2022/04/12 00:03:32;;;;;;;12.98;7.35;;;103.00;2227.20;;;;;;5026255;28;20029;-52
2022/04/12 00:05:58;;;;;;;14.88;8.48;;;102.90;2227.20;;;;;;5029784;28;20026;-53
2022/04/12 00:08:24;;;;;;;14.20;9.32;;;103.00;2227.20;;;;;;5028772;28;20030;-52
2022/04/12 00:10:50;;;;;;;12.30;7.40;;;103.10;2227.20;;;;;;5029853;28;20030;-55
2022/04/12 00:13:19;;;;;;;13.38;8.85;;;103.10;2227.20;;;;;;5030010;28;20029;-53
2022/04/12 00:15:48;;;;;;;16.08;9.70;;;103.10;2227.20;;;;;;5029752;28;20033;-57
2022/04/12 00:20:59;;;;;;;10.30;7.38;;;103.00;2227.20;;;;;;5027850;28;20385;-53
2022/04/12 00:23:25;;;;;;;11.02;6.85;;;103.00;2227.20;;;;;;5029466;28;20033;-53
2022/04/12 00:25:53;;;;;;;13.75;7.15;;;102.80;2227.20;;;;;;5029392;28;20091;-54
2022/04/12 00:28:19;;;;;;;12.32;8.57;;;102.80;2227.20;;;;;;5029406;28;20032;-54
2022/04/12 00:30:45;;;;;;;15.48;12.13;;;102.90;2227.20;;;;;;5029481;28;20550;-53
2022/04/12 00:33:11;;;;;;;22.25;15.75;;;103.00;2227.20;;;;;;5028874;28;20057;-54
2022/04/12 00:35:37;;;;;;;22.70;15.80;;;103.10;2227.20;;;;;;5029247;28;20128;-54
2022/04/12 00:38:13;;;;;;;16.85;11.63;;;103.10;2227.20;;;;;;5029261;28;20022;-52
2022/04/12 00:40:40;;;;;;;21.60;16.10;;;103.10;2227.20;;;;;;5027390;28;20041;-54
2022/04/12 00:43:06;;;;;;;16.60;10.48;;;103.20;2227.20;;;;;;5029237;28;20472;-54
2022/04/12 00:45:32;;;;;;;12.85;8.20;;;102.80;2227.20;;;;;;5028927;28;20024;-52
2022/04/12 00:47:57;;;;;;;15.82;10.43;;;102.40;2227.20;;;;;;5029164;28;20032;-52
2022/04/12 00:50:23;;;;;;;17.05;12.23;;;102.60;2227.20;;;;;;5029178;28;20112;-53
2022/04/12 00:52:51;;;;;;;24.95;15.57;;;102.60;2227.20;;;;;;5029046;28;20025;-52
2022/04/12 00:55:18;;;;;;;49.17;27.10;;;102.70;2227.20;;;;;;5029467;28;20021;-54
2022/04/12 00:57:43;;;;;;;41.67;26.63;;;102.90;2227.20;;;;;;5029690;28;20025;-55
2022/04/12 01:00:11;;;;;;;22.13;12.25;;;103.00;2227.20;;;;;;5030297;28;20025;-54
2022/04/12 01:02:39;;;;;;;15.15;9.70;;;102.80;2227.20;;;;;;5030242;28;20044;-54
2022/04/12 01:05:05;;;;;;;17.58;10.90;;;102.70;2227.20;;;;;;5030274;28;20057;-54
2022/04/12 01:07:32;;;;;;;20.60;12.02;;;102.80;2227.20;;;;;;5030057;28;20393;-56
2022/04/12 01:09:58;;;;;;;21.48;13.68;;;102.70;2227.20;;;;;;5030265;28;20455;-54
2022/04/12 01:12:27;;;;;;;16.40;10.95;;;102.60;2227.20;;;;;;5030140;28;20026;-54
2022/04/12 01:14:53;;;;;;;16.88;10.63;;;102.60;2227.20;;;;;;5029799;28;20116;-55
2022/04/12 01:17:18;;;;;;;29.80;17.15;;;102.80;2227.20;;;;;;5030034;28;20036;-53
2022/04/12 01:19:44;;;;;;;24.77;16.15;;;102.80;2227.20;;;;;;5030096;28;20460;-54
2022/04/12 01:22:18;;;;;;;23.40;14.68;;;102.70;2227.20;;;;;;5030164;28;20029;-55
2022/04/12 01:24:44;;;;;;;21.75;13.05;;;102.70;2227.20;;;;;;5030124;28;20044;-54
2022/04/12 01:27:10;;;;;;;18.40;11.43;;;102.70;2227.20;;;;;;5029921;28;20037;-54
2022/04/12 01:29:36;;;;;;;17.33;10.55;;;102.80;2227.20;;;;;;5030079;28;20033;-54
2022/04/12 01:32:07;;;;;;;21.83;11.38;;;102.80;2227.20;;;;;;5029896;28;20132;-53
2022/04/12 01:34:34;;;;;;;16.05;11.18;;;102.80;2227.20;;;;;;5029563;28;20061;-55
2022/04/12 01:37:02;;;;;;;20.85;11.57;;;102.70;2227.20;;;;;;5029618;28;20033;-55
2022/04/12 01:39:28;;;;;;;17.00;9.30;;;102.70;2227.20;;;;;;5030154;28;20388;-54
2022/04/12 01:41:54;;;;;;;11.20;7.82;;;102.70;2227.20;;;;;;5029911;28;20029;-54
2022/04/12 01:44:20;;;;;;;12.60;7.47;;;102.70;2227.20;;;;;;5029706;28;20112;-54
2022/04/12 01:46:45;;;;;;;13.75;8.00;;;102.60;2227.20;;;;;;5029884;28;20380;-55
2022/04/12 01:49:11;;;;;;;79.65;38.70;;;102.60;2227.20;;;;;;5029799;28;20396;-55
2022/04/12 01:51:37;;;;;;;21.13;12.45;;;102.60;2227.20;;;;;;5030183;28;20102;-55
2022/04/12 01:54:03;;;;;;;17.83;11.23;;;102.50;2227.20;;;;;;5029747;28;20503;-55
2022/04/12 01:56:31;;;;;;;35.15;19.48;;;102.50;2227.20;;;;;;5029692;28;20026;-56
2022/04/12 01:58:57;;;;;;;29.60;16.42;;;102.60;2227.20;;;;;;5030032;28;20045;-55
2022/04/12 02:01:23;;;;;;;25.02;14.65;;;102.60;2227.20;;;;;;5029613;28;20026;-55
2022/04/12 02:03:48;;;;;;;14.18;10.18;;;102.60;2227.20;;;;;;5029654;28;20036;-53
2022/04/12 02:06:14;;;;;;;12.23;8.38;;;102.60;2227.20;;;;;;5029964;28;20030;-55
2022/04/12 02:08:40;;;;;;;8.02;5.65;;;102.50;2227.20;;;;;;5029738;28;20076;-54
2022/04/12 02:11:07;;;;;;;12.68;7.15;;;102.50;2227.20;;;;;;5029920;28;20118;-54
2022/04/12 02:13:33;;;;;;;12.82;7.28;;;102.50;2227.20;;;;;;5029592;28;20384;-53
2022/04/12 02:15:58;;;;;;;10.13;6.50;;;102.40;2227.20;;;;;;5029476;28;20058;-55
2022/04/12 02:18:24;;;;;;;12.75;8.00;;;102.50;2227.20;;;;;;5029495;28;20487;-55
2022/04/12 02:20:50;;;;;;;14.63;7.72;;;102.60;2227.20;;;;;;5029362;28;20063;-54
2022/04/12 02:23:15;;;;;;;15.77;10.77;;;102.50;2227.20;;;;;;5029607;28;20112;-54
2022/04/12 02:25:41;;;;;;;17.80;10.52;;;102.50;2227.20;;;;;;5029457;28;20523;-53
2022/04/12 02:28:07;;;;;;;19.60;13.30;;;102.50;2227.20;;;;;;5032513;28;20029;-54
2022/04/12 02:30:33;;;;;;;18.63;13.00;;;102.50;2227.20;;;;;;5032881;28;20048;-53
2022/04/12 02:32:59;;;;;;;47.58;29.70;;;102.50;2227.20;;;;;;5032909;28;20022;-54
2022/04/12 02:35:25;;;;;;;47.33;26.05;;;102.60;2227.20;;;;;;5032763;28;20115;-55
2022/04/12 02:37:51;;;;;;;32.55;18.80;;;102.70;2227.20;;;;;;5032887;28;20490;-54
2022/04/12 02:40:17;;;;;;;17.17;10.95;;;102.70;2227.20;;;;;;5033129;28;20032;-54
2022/04/12 02:42:43;;;;;;;23.73;14.23;;;102.60;2227.20;;;;;;5032795;28;20079;-55
2022/04/12 02:45:09;;;;;;;20.83;12.23;;;102.50;2227.20;;;;;;5032669;28;20036;-53
2022/04/12 02:47:35;;;;;;;17.88;9.13;;;102.60;2227.20;;;;;;5032845;28;20040;-54
2022/04/12 02:50:01;;;;;;;11.20;7.35;;;102.60;2227.20;;;;;;5032858;28;20133;-54
2022/04/12 02:52:27;;;;;;;11.43;8.38;;;102.60;2227.20;;;;;;5032855;28;20105;-52
2022/04/12 02:54:53;;;;;;;9.13;6.30;;;102.50;2227.20;;;;;;5032633;28;20087;-54
2022/04/12 02:57:19;;;;;;;12.65;8.43;;;77.70;2227.20;;;;;;5032473;28;20468;-55
2022/04/12 02:59:45;;;;;;;12.43;8.27;;;77.70;2227.20;;;;;;5032716;28;20060;-53
2022/04/12 03:02:10;;;;;;;11.13;7.20;;;77.70;2227.20;;;;;;5032527;28;20033;-53
2022/04/12 03:04:36;;;;;;;12.25;6.45;;;77.70;2227.20;;;;;;5032419;28;20044;-55
2022/04/12 03:07:02;;;;;;;10.45;6.30;;;102.40;2227.20;;;;;;5032457;28;20041;-53
2022/04/12 03:09:28;;;;;;;10.10;7.20;;;102.40;2227.20;;;;;;5032454;28;20534;-54
2022/04/12 03:11:54;;;;;;;13.65;8.68;;;102.40;2227.20;;;;;;5032660;28;20026;-54
2022/04/12 03:14:20;;;;;;;18.75;10.38;;;102.40;2227.20;;;;;;5032121;28;20438;-53
2022/04/12 03:16:46;;;;;;;22.65;16.08;;;102.40;2227.20;;;;;;5032259;28;20037;-52
2022/04/12 03:19:11;;;;;;;21.08;15.38;;;102.40;2227.20;;;;;;5032057;28;20399;-53
2022/04/12 03:21:37;;;;;;;25.40;13.35;;;102.40;2227.20;;;;;;5032335;28;20049;-54
2022/04/12 03:24:03;;;;;;;25.23;13.63;;;102.40;2227.20;;;;;;5031961;28;20108;-53
2022/04/12 03:26:29;;;;;;;24.73;14.43;;;102.40;2227.20;;;;;;5031885;28;20041;-54
2022/04/12 03:28:55;;;;;;;38.72;23.05;;;102.40;2227.20;;;;;;5032095;28;20029;-52
2022/04/12 03:31:21;;;;;;;24.58;15.50;;;102.40;2227.20;;;;;;5031825;28;20037;-52
2022/04/12 03:33:48;;;;;;;21.27;15.25;;;102.40;2227.20;;;;;;5031799;28;20041;-52
2022/04/12 03:36:13;;;;;;;22.05;14.63;;;102.50;2227.20;;;;;;5032145;28;20383;-54
2022/04/12 03:38:48;;;;;;;23.52;14.70;;;102.50;2227.20;;;;;;5030882;28;20160;-55
2022/04/12 03:41:18;;;;;;;30.23;16.38;;;102.50;2227.20;;;;;;5031384;28;20108;-53
2022/04/12 03:43:45;;;;;;;36.17;22.40;;;102.50;2227.20;;;;;;5031560;28;20039;-53
2022/04/12 03:46:10;;;;;;;41.95;27.38;;;102.50;2227.20;;;;;;5031537;28;20033;-53
2022/04/12 03:48:36;;;;;;;39.58;25.05;;;102.40;2227.20;;;;;;5031638;28;20439;-53
2022/04/12 03:51:02;;;;;;;43.05;29.20;;;102.40;2227.20;;;;;;5031578;28;20120;-55
2022/04/12 03:53:28;;;;;;;23.35;16.92;;;102.40;2227.20;;;;;;5031537;28;20376;-53
2022/04/12 03:55:55;;;;;;;17.23;9.75;;;102.40;2227.20;;;;;;5031339;28;20029;-53
2022/04/12 03:58:22;;;;;;;19.05;11.32;;;102.40;2227.20;;;;;;5031256;28;20029;-53
2022/04/12 04:00:48;;;;;;;21.45;14.32;;;102.50;2227.20;;;;;;5031526;28;20041;-54
2022/04/12 04:03:14;;;;;;;29.27;16.55;;;102.50;2227.20;;;;;;5031378;28;20048;-53
2022/04/12 04:05:40;;;;;;;30.83;22.83;;;102.50;2227.20;;;;;;5031139;28;20038;-54
2022/04/12 04:08:06;;;;;;;41.13;27.45;;;102.50;2227.20;;;;;;5030877;28;20033;-54
2022/04/12 04:10:32;;;;;;;20.38;16.17;;;102.50;2227.20;;;;;;5030443;28;20411;-53
2022/04/12 04:12:57;;;;;;;13.73;9.27;;;102.60;2227.20;;;;;;5031211;28;20029;-54
2022/04/12 04:15:23;;;;;;;12.48;8.32;;;102.60;2227.20;;;;;;5031055;28;20073;-53
2022/04/12 04:17:49;;;;;;;23.38;13.55;;;102.70;2227.20;;;;;;5030792;28;20440;-54
2022/04/12 04:20:17;;;;;;;84.40;46.47;;;102.70;2227.20;;;;;;5031187;28;20031;-53
2022/04/12 04:22:43;;;;;;;80.20;39.70;;;102.80;2227.20;;;;;;5030832;28;20029;-54
2022/04/12 04:25:11;;;;;;;35.33;22.00;;;102.80;2227.20;;;;;;5030974;28;20029;-54
2022/04/12 04:27:37;;;;;;;27.73;15.57;;;102.80;2227.20;;;;;;5031070;28;20048;-54
2022/04/12 04:30:04;;;;;;;16.27;12.18;;;102.80;2227.20;;;;;;5030129;28;20476;-53
2022/04/12 04:32:31;;;;;;;19.35;10.73;;;102.90;2227.20;;;;;;5029989;28;20095;-52
2022/04/12 04:34:57;;;;;;;45.47;25.05;;;102.90;2227.20;;;;;;5030433;28;20440;-54
2022/04/12 04:37:22;;;;;;;64.78;34.90;;;102.90;2227.20;;;;;;5030714;28;20120;-55
2022/04/12 04:39:48;;;;;;;31.70;20.77;;;103.00;2227.20;;;;;;5030757;28;20107;-53
2022/04/12 04:42:14;;;;;;;20.80;13.20;;;103.00;2227.20;;;;;;5030691;28;20075;-53
2022/04/12 04:44:39;;;;;;;17.20;10.00;;;103.10;2227.20;;;;;;5030316;28;20108;-53
2022/04/12 04:47:05;;;;;;;15.60;11.05;;;103.20;2227.20;;;;;;5030633;28;20030;-54
2022/04/12 04:49:31;;;;;;;16.65;8.77;;;103.20;2227.20;;;;;;5029754;28;20099;-53
2022/04/12 04:51:57;;;;;;;24.13;14.07;;;103.30;2227.20;;;;;;5030007;28;20074;-53
2022/04/12 04:54:22;;;;;;;25.05;14.70;;;103.30;2227.20;;;;;;5030685;28;20025;-53
2022/04/12 04:56:48;;;;;;;23.30;14.75;;;103.30;2227.20;;;;;;5030362;28;20049;-53
2022/04/12 04:59:14;;;;;;;36.15;21.77;;;128.00;2252.80;;;;;;5030394;28;20083;-53
2022/04/12 05:01:40;;;;;;;37.90;23.65;;;128.20;2252.80;;;;;;5030395;28;20079;-53
2022/04/12 05:04:06;;;;;;;61.88;32.50;;;128.20;2252.80;;;;;;5030426;28;20066;-54
2022/04/12 05:06:31;;;;;;;91.93;55.67;;;153.80;2252.80;;;;;;5030219;28;20171;-54
2022/04/12 05:08:57;;;;;;;101.97;62.17;;;256.00;2150.40;;;;;;5030186;28;20116;-55
2022/04/12 05:11:23;;;;;;;114.00;68.70;;;308.10;1792.00;;;;;;5030261;28;20476;-54
2022/04/12 05:13:49;;;;;;;135.45;84.28;;;358.80;1638.40;;;;;;5026729;28;20025;-53
2022/04/12 05:16:15;;;;;;;141.75;91.10;;;409.60;1510.40;;;;;;5029200;28;20468;-54
2022/04/12 05:18:40;;;;;;;179.50;118.05;;;410.50;1459.20;;;;;;5029004;28;20025;-55
2022/04/12 05:21:06;;;;;;;250.98;156.90;;;435.30;1408.00;;;;;;5029896;28;20029;-55
2022/04/12 05:23:32;;;;;;;201.55;122.03;;;384.40;1484.80;;;;;;5029946;28;20076;-56
2022/04/12 05:25:57;;;;;;;160.70;103.65;;;359.00;1561.60;;;;;;5030118;28;20040;-54
2022/04/12 05:28:23;;;;;;;121.65;78.43;;;359.00;1561.60;;;;;;5030012;28;20041;-53
2022/04/12 05:30:49;;;;;;;121.32;76.50;;;358.80;1561.60;;;;;;5029827;28;20033;-54
2022/04/12 05:33:15;;;;;;;93.22;63.33;;;409.60;1459.20;;;;;;5029834;28;20025;-55
2022/04/12 05:35:41;;;;;;;88.65;59.20;;;435.50;1382.40;;;;;;5030116;28;20048;-53
2022/04/12 05:38:07;;;;;;;86.22;59.38;;;461.40;1331.20;;;;;;5030025;28;20479;-54
2022/04/12 05:40:34;;;;;;;92.57;61.80;;;486.40;1305.60;;;;;;5029850;28;20049;-54
2022/04/12 05:43:00;;;;;;;123.13;73.22;;;486.60;1280.00;;;;;;5033518;28;20083;-53
2022/04/12 05:45:26;;;;;;;83.25;54.67;;;512.90;1177.60;;;;;;5035890;28;20026;-53
2022/04/12 05:47:53;;;;;;;74.00;51.20;;;538.40;1152.00;;;;;;5037362;28;20446;-52
2022/04/12 05:50:27;;;;;;;88.40;62.42;;;564.00;1100.80;;;;;;5033868;28;20459;-54
2022/04/12 05:52:53;;;;;;;81.25;57.33;;;564.10;1075.20;;;;;;5025134;28;20025;-53
2022/04/12 05:55:21;;;;;;;51.92;39.50;;;564.00;1100.80;;;;;;5028250;28;20036;-54
2022/04/12 05:57:56;;;;;;;33.53;27.70;;;589.00;1049.60;;;;;;5028611;28;20064;-54
2022/04/12 06:00:23;;;;;;;23.58;20.60;;;589.70;1024.00;;;;;;5028281;28;20021;-56
2022/04/12 06:02:50;;;;;;;25.55;19.00;;;640.70;947.20;;;;;;5030702;28;20053;-56
2022/04/12 06:05:18;;;;;;;20.80;17.65;;;691.60;896.00;;;;;;5032523;28;20376;-56
2022/04/12 06:07:44;;;;;;;15.95;12.02;;;692.00;870.40;;;;;;5029120;28;20033;-56
2022/04/12 06:10:11;;;;;;;14.65;11.68;;;716.90;870.40;;;;;;5032635;28;20127;-55
2022/04/12 06:12:37;;;;;;;16.48;11.98;;;717.00;870.40;;;;;;5033155;28;20022;-56
2022/04/12 06:15:04;;;;;;;62.70;40.50;;;691.50;870.40;;;;;;5033285;28;20026;-56
2022/04/12 06:17:34;;;;;;;141.00;84.07;;;691.80;870.40;;;;;;5033221;28;20083;-56
2022/04/12 06:20:05;;;;;;;48.92;34.17;;;666.00;921.60;;;;;;5033267;28;20033;-56
2022/04/12 06:22:31;;;;;;;30.63;22.52;;;717.30;844.80;;;;;;5033053;28;20056;-66
2022/04/12 06:24:57;;;;;;;20.50;16.63;;;743.20;844.80;;;;;;5033317;28;20033;-61
2022/04/12 06:27:52;;;;;;;22.08;19.15;;;768.60;793.60;;;;;;5033009;28;20025;-63
2022/04/12 06:30:37;;;;;;;18.52;16.63;;;794.00;793.60;;;;;;5032139;28;20042;-60
2022/04/12 06:33:03;;;;;;;184.45;165.55;;;768.60;793.60;;;;;;5032695;28;20026;-64
2022/04/12 06:35:28;;;;;;;31.88;28.30;;;742.60;844.80;;;;;;5033028;28;20458;-65
2022/04/12 06:37:56;;;;;;;33.65;30.13;;;717.40;844.80;;;;;;5032906;28;20115;-64
2022/04/12 06:40:23;;;;;;;27.35;24.80;;;768.40;819.20;;;;;;5031949;28;20033;-63
2022/04/12 06:42:50;;;;;;;33.22;30.13;;;742.90;870.40;;;;;;5032424;28;20049;-57
2022/04/12 06:45:16;;;;;;;27.15;24.30;;;794.00;819.20;;;;;;5032853;28;20480;-62
2022/04/12 06:47:43;;;;;;;22.10;19.77;;;743.10;844.80;;;;;;5031970;28;20021;-62
2022/04/12 06:50:12;;;;;;;20.35;18.35;;;768.30;844.80;;;;;;5032199;28;20033;-57
2022/04/12 06:52:38;;;;;;;23.10;20.88;;;794.00;819.20;;;;;;5032272;28;20039;-61
2022/04/12 06:55:05;;;;;;;24.05;21.60;;;768.10;819.20;;;;;;5031573;28;20029;-58
2022/04/12 06:57:35;;;;;;;23.77;21.58;;;768.00;844.80;;;;;;5031187;28;20108;-58
2022/04/12 07:00:03;;;;;;;23.20;20.95;;;768.60;819.20;;;;;;5028994;28;20030;-58
2022/04/12 07:02:29;;;;;;;22.08;20.17;;;819.40;819.20;;;;;;5031253;28;20079;-59
2022/04/12 07:04:54;;;;;;;27.65;24.98;;;845.00;793.60;;;;;;5031283;28;20025;-60
2022/04/12 07:07:20;;;;;;;26.55;23.95;;;819.70;793.60;;;;;;5030979;28;20021;-62
2022/04/12 07:09:46;;;;;;;23.20;20.95;;;793.70;844.80;;;;;;5030918;28;20033;-67
2022/04/12 07:12:12;;;;;;;27.35;24.60;;;742.60;870.40;;;;;;5032090;28;20380;-69
2022/04/12 07:14:37;;;;;;;29.23;25.85;;;794.40;819.20;;;;;;5032416;28;20026;-66
2022/04/12 07:17:03;;;;;;;27.65;25.00;;;819.60;793.60;;;;;;5032364;28;20021;-70
2022/04/12 07:19:29;;;;;;;29.40;26.58;;;793.80;819.20;;;;;;5032112;28;20524;-65
2022/04/12 07:21:55;;;;;;;24.55;22.13;;;819.60;768.00;;;;;;5031832;28;20116;-68
2022/04/12 07:24:21;;;;;;;26.70;23.88;;;819.80;768.00;;;;;;5032088;28;20025;-68
2022/04/12 07:26:46;;;;;;;31.17;26.48;;;845.70;742.40;;;;;;5032113;28;20037;-61
2022/04/12 07:29:13;;;;;;;27.33;24.42;;;870.90;716.80;;;;;;5031741;28;20037;-60
2022/04/12 07:31:38;;;;;;;34.10;30.35;;;845.10;768.00;;;;;;5032137;28;20025;-61
2022/04/12 07:34:04;;;;;;;29.35;25.95;;;794.00;819.20;;;;;;5031853;28;20052;-59
2022/04/12 07:36:30;;;;;;;33.17;28.05;;;845.10;768.00;;;;;;5031730;28;20033;-60
2022/04/12 07:38:56;;;;;;;40.80;34.72;;;820.00;768.00;;;;;;5031800;28;20021;-70
2022/04/12 07:41:22;;;;;;;40.55;35.38;;;768.90;819.20;;;;;;5031695;28;20021;-68
2022/04/12 07:43:49;;;;;;;25.33;22.58;;;819.20;793.60;;;;;;5032078;28;20039;-65
2022/04/12 07:46:15;;;;;;;18.90;16.20;;;768.80;793.60;;;;;;5031976;28;20358;-59
2022/04/12 07:48:42;;;;;;;28.10;25.25;;;768.70;793.60;;;;;;5031440;28;20028;-62
2022/04/12 07:51:07;;;;;;;23.25;21.00;;;820.10;768.00;;;;;;5031775;28;20029;-66
2022/04/12 07:53:34;;;;;;;24.45;21.63;;;845.70;742.40;;;;;;5031367;28;20070;-64
2022/04/12 07:55:59;;;;;;;24.83;22.17;;;819.70;742.40;;;;;;5031437;28;20032;-67
2022/04/12 07:58:25;;;;;;;20.80;18.40;;;768.00;819.20;;;;;;5031606;28;20029;-65
2022/04/12 08:00:51;;;;;;;25.50;17.75;;;794.10;793.60;;;;;;5031382;28;20030;-67
2022/04/12 08:03:20;;;;;;;36.67;24.92;;;793.70;793.60;;;;;;5031393;28;20056;-63
2022/04/12 08:05:50;;;;;;;29.20;22.38;;;845.40;742.40;;;;;;5031594;28;20052;-63
2022/04/12 08:08:15;;;;;;;28.48;20.77;;;870.90;716.80;;;;;;5031442;28;20030;-66
2022/04/12 08:10:41;;;;;;;32.92;26.17;;;870.60;742.40;;;;;;5031095;28;20038;-61
2022/04/12 08:13:07;;;;;;;24.77;21.50;;;844.90;768.00;;;;;;5031441;28;20503;-61
2022/04/12 08:15:33;;;;;;;29.13;18.25;;;870.50;742.40;;;;;;5031126;28;20025;-58
2022/04/12 08:17:59;;;;;;;29.08;20.10;;;819.90;742.40;;;;;;5031326;28;20022;-61
2022/04/12 08:20:24;;;;;;;22.80;16.75;;;870.90;742.40;;;;;;5031302;28;20349;-66
2022/04/12 08:22:52;;;;;;;24.13;16.52;;;871.00;716.80;;;;;;5031053;28;20053;-62
2022/04/12 08:25:18;;;;;;;20.05;16.77;;;845.40;768.00;;;;;;5030787;28;20027;-70
2022/04/12 08:27:45;;;;;;;17.95;11.77;;;819.90;742.40;;;;;;5031132;28;20025;-70
2022/04/12 08:30:11;;;;;;;16.55;12.35;;;820.10;742.40;;;;;;5030681;28;20040;-67
2022/04/12 08:32:37;;;;;;;15.32;10.93;;;793.60;819.20;;;;;;5030923;28;20088;-62
2022/04/12 08:35:04;;;;;;;18.52;10.85;;;768.60;793.60;;;;;;5030492;28;20057;-70
2022/04/12 08:37:31;;;;;;;16.58;10.63;;;794.50;793.60;;;;;;5030429;28;20040;-73
2022/04/12 08:39:56;;;;;;;11.73;10.05;;;794.20;793.60;;;;;;5030815;28;20083;-66
2022/04/12 08:42:22;;;;;;;16.75;13.88;;;742.50;819.20;;;;;;5030423;28;20029;-73
2022/04/12 08:44:49;;;;;;;11.60;8.70;;;742.90;819.20;;;;;;5030817;28;20037;-67
2022/04/12 08:47:16;;;;;;;8.45;7.47;;;691.40;844.80;;;;;;5030791;28;20021;-66
2022/04/12 08:49:43;;;;;;;13.70;9.05;;;615.00;896.00;;;;;;5030162;28;20026;-65
2022/04/12 08:52:12;;;;;;;10.77;6.72;;;589.50;972.80;;;;;;5030263;28;20025;-66
2022/04/12 08:54:39;;;;;;;5.95;5.15;;;589.30;972.80;;;;;;5030419;28;20052;-58
2022/04/12 08:57:05;;;;;;;14.05;8.23;;;563.40;1024.00;;;;;;5030498;28;20076;-71
2022/04/12 08:59:31;;;;;;;10.52;8.05;;;563.70;1024.00;;;;;;5030603;28;20025;-69
2022/04/12 09:01:58;;;;;;;8.48;5.78;;;563.60;1024.00;;;;;;5030378;28;20498;-71
2022/04/12 09:04:27;;;;;;;8.70;6.05;;;538.50;1024.00;;;;;;5030288;28;20483;-72
2022/04/12 09:06:58;;;;;;;11.30;5.70;;;537.90;1049.60;;;;;;5030107;28;20057;-72
2022/04/12 09:09:29;;;;;;;23.08;9.82;;;537.70;1049.60;;;;;;5030183;28;20108;-73
2022/04/12 09:12:03;;;;;;;15.20;11.00;;;512.30;1049.60;;;;;;5030247;28;20060;-72
2022/04/12 09:14:43;;;;;;;6.25;3.67;;;537.70;1049.60;;;;;;5030078;28;20531;-68
2022/04/12 09:17:14;;;;;;;5.97;4.05;;;512.70;1024.00;;;;;;5030249;28;20124;-69
2022/04/12 09:19:48;;;;;;;6.28;4.40;;;512.80;998.40;;;;;;5030031;28;20030;-73
2022/04/12 09:22:21;;;;;;;9.48;5.60;;;537.90;1024.00;;;;;;5030100;28;20030;-69
2022/04/12 09:24:50;;;;;;;;;;;512.30;1024.00;;;;;;5030628;28;20040;-69
2022/04/12 09:27:23;;;;;;;6.28;3.35;;;512.60;1049.60;;;;;;5030244;28;19905;-65
2022/04/12 09:29:51;;;;;;;9.88;5.95;;;512.10;1024.00;;;;;;5029758;28;20492;-72
2022/04/12 09:32:22;;;;;;;5.90;3.90;;;512.30;1049.60;;;;;;5030022;28;20119;-69
2022/04/12 09:34:48;;;;;;;10.98;5.15;;;512.10;1024.00;;;;;;5029842;28;20077;-75
2022/04/12 09:37:22;;;;;;;10.27;5.65;;;512.70;1024.00;;;;;;5031841;28;20533;-71
2022/04/12 09:40:00;;;;;;;12.30;5.18;;;512.80;1024.00;;;;;;5033795;28;20071;-57
2022/04/12 09:42:50;;;;;;;5.93;4.25;;;487.10;1049.60;;;;;;5034160;28;20057;-65
2022/04/12 09:45:20;;;;;;;14.68;6.15;;;487.30;1075.20;;;;;;5033953;28;20346;-64
2022/04/12 09:47:48;;;;;;;12.95;8.20;;;512.10;1075.20;;;;;;5034137;28;20076;-64
2022/04/12 09:50:14;;;;;;;9.98;6.82;;;512.20;1075.20;;;;;;5033691;28;20069;-64
2022/04/12 09:52:55;;;;;;;17.15;9.80;;;512.40;1075.20;;;;;;5033624;28;20025;-64
2022/04/12 09:55:39;;;;;;;7.70;4.20;;;512.80;1100.80;;;;;;5033471;28;20054;-64
2022/04/12 09:58:06;;;;;;;12.38;5.47;;;512.20;1049.60;;;;;;5033873;28;20026;-63
2022/04/12 10:00:33;;;;;;;10.60;6.47;;;512.20;1049.60;;;;;;5030716;28;20048;-65
2022/04/12 10:03:07;;;;;;;8.80;5.50;;;487.10;1075.20;;;;;;5030362;28;20511;-61
2022/04/12 10:05:33;;;;;;;20.75;10.30;;;487.20;1075.20;;;;;;5031992;28;20045;-68
2022/04/12 10:08:02;;;;;;;36.03;16.83;;;512.00;1100.80;;;;;;5032364;28;20045;-64
2022/04/12 10:10:28;;;;;;;7.10;4.93;;;512.50;1100.80;;;;;;5033961;28;20033;-65
2022/04/12 10:12:57;;;;;;;9.13;4.47;;;512.00;1049.60;;;;;;5033547;28;20405;-67
2022/04/12 10:15:24;;;;;;;9.13;4.93;;;512.30;1024.00;;;;;;5033626;28;20091;-67
2022/04/12 10:17:51;;;;;;;8.50;5.43;;;512.20;1075.20;;;;;;5033395;28;20017;-65
2022/04/12 10:20:18;;;;;;;12.32;7.03;;;512.50;1049.60;;;;;;5033494;28;20047;-62
2022/04/12 10:22:45;;;;;;;7.90;5.22;;;512.40;1126.40;;;;;;5033330;28;20049;-58
2022/04/12 10:25:14;;;;;;;7.57;4.50;;;512.40;1100.80;;;;;;5033171;28;20032;-57
2022/04/12 10:27:41;;;;;;;8.15;5.00;;;512.60;1152.00;;;;;;5033161;28;20101;-67
2022/04/12 10:30:31;;;;;;;5.75;3.90;;;512.40;1049.60;;;;;;5033331;28;20357;-63
2022/04/12 10:33:04;;;;;;;8.18;4.93;;;512.70;1024.00;;;;;;4991589;28;20038;-66
2022/04/12 10:35:56;;;;;;;9.47;5.67;;;487.30;1049.60;;;;;;4991287;28;20078;-61
2022/04/12 10:38:24;;;;;;;7.88;4.63;;;487.10;1152.00;;;;;;4991158;28;20817;-65
2022/04/12 10:40:55;;;;;;;6.05;3.88;;;487.30;1228.80;;;;;;4991384;28;20218;-66
2022/04/12 10:43:33;;;;;;;6.68;4.63;;;487.30;1177.60;;;;;;4991181;28;20122;-65
2022/04/12 10:46:01;;;;;;;27.00;11.75;;;512.00;1228.80;;;;;;4991104;28;20062;-64
2022/04/12 10:48:29;;;;;;;7.80;3.65;;;487.30;1126.40;;;;;;4990617;28;20081;-66
2022/04/12 10:50:58;;;;;;;6.75;4.40;;;487.00;1100.80;;;;;;4991032;28;20050;-63
2022/04/12 10:53:39;;;;;;;6.47;4.50;;;487.00;1126.40;;;;;;4990921;28;20080;-67
2022/04/12 10:56:14;;;;;;;5.45;3.70;;;486.80;1152.00;;;;;;4991023;28;20026;-62
2022/04/12 10:58:40;;;;;;;5.60;3.40;;;487.00;1203.20;;;;;;4990930;28;20045;-64
2022/04/12 11:01:10;;;;;;;5.55;3.67;;;487.30;1177.60;;;;;;4991136;28;20392;-66
2022/04/12 11:03:43;;;;;;;6.45;3.30;;;512.10;1152.00;;;;;;4990823;28;20041;-66
2022/04/12 11:06:21;;;;;;;8.15;4.18;;;512.20;1100.80;;;;;;4990782;28;20069;-59
2022/04/12 11:08:52;;;;;;;5.75;3.88;;;512.20;1075.20;;;;;;4991957;28;20151;-66
2022/04/12 11:11:28;;;;;;;5.82;4.00;;;487.20;1100.80;;;;;;5032265;28;20056;-68
2022/04/12 11:14:15;;;;;;;6.45;3.88;;;486.70;1152.00;;;;;;5032243;28;20028;-67
2022/04/12 11:16:49;;;;;;;8.40;3.60;;;486.80;1126.40;;;;;;5031689;28;20029;-62
2022/04/12 11:19:23;;;;;;;9.82;5.22;;;486.70;1152.00;;;;;;5032184;28;20030;-64
2022/04/12 11:21:50;;;;;;;5.30;3.92;;;486.80;1177.60;;;;;;5031799;28;20025;-62
2022/04/12 11:24:17;;;;;;;6.82;3.72;;;487.10;1228.80;;;;;;5032083;28;20036;-66
2022/04/12 11:27:09;;;;;;;6.60;3.85;;;487.30;1126.40;;;;;;5031920;28;20494;-66
2022/04/12 11:29:36;;;;;;;5.70;3.50;;;512.00;1152.00;;;;;;5031805;28;20042;-66
2022/04/12 11:32:02;;;;;;;8.48;3.45;;;487.30;1152.00;;;;;;5031517;28;20029;-57
2022/04/12 11:34:29;;;;;;;4.78;3.10;;;487.30;1126.40;;;;;;5031582;28;20596;-58
2022/04/12 11:36:59;;;;;;;6.03;3.40;;;487.30;1152.00;;;;;;5031643;28;20464;-63
2022/04/12 11:39:28;;;;;;;4.15;2.42;;;487.20;1152.00;;;;;;5031875;28;20040;-60
2022/04/12 11:42:04;;;;;;;4.65;2.83;;;487.10;1152.00;;;;;;5031774;28;20119;-60
2022/04/12 11:44:31;;;;;;;4.57;2.90;;;487.30;1152.00;;;;;;5031370;28;20029;-56
2022/04/12 11:47:04;;;;;;;3.72;2.40;;;512.00;1152.00;;;;;;5031492;28;20357;-58
2022/04/12 11:49:31;;;;;;;6.40;3.58;;;512.20;1177.60;;;;;;5031289;28;20539;-63
2022/04/12 11:52:02;;;;;;;5.30;3.47;;;512.40;1177.60;;;;;;5031612;28;20025;-61
2022/04/12 11:54:30;;;;;;;9.35;3.15;;;512.30;1152.00;;;;;;5031626;28;20061;-61
2022/04/12 11:57:09;;;;;;;7.40;3.30;;;512.50;1152.00;;;;;;5031542;28;20025;-58
2022/04/12 11:59:52;;;;;;;4.70;3.10;;;512.70;1177.60;;;;;;5030304;28;20028;-60
2022/04/12 12:02:23;;;;;;;4.70;2.67;;;512.60;1152.00;;;;;;5031460;28;20025;-59
2022/04/12 12:04:49;;;;;;;5.05;3.50;;;512.60;1100.80;;;;;;5031181;28;20025;-58
2022/04/12 12:07:16;;;;;;;4.65;3.15;;;512.70;1126.40;;;;;;5031147;28;20032;-62
2022/04/12 12:10:02;;;;;;;4.50;2.90;;;512.70;1126.40;;;;;;5030958;28;20087;-56
2022/04/12 12:12:31;;;;;;;4.25;2.80;;;512.60;1126.40;;;;;;5030974;28;20461;-56